createdAt,value
2023-03-05T00:00:38.682Z,22.46
2023-03-05T00:01:38.690Z,22.46
2023-03-05T00:02:38.734Z,22.46
2023-03-05T00:19:16.788Z,22.41
2023-03-05T00:20:17.150Z,22.43
2023-03-05T00:21:16.596Z,22.45
2023-03-05T00:22:16.566Z,22.46
2023-03-05T00:23:16.425Z,22.46
2023-03-05T00:24:16.417Z,22.47
2023-03-05T00:25:16.375Z,22.47
2023-03-05T00:26:16.361Z,22.47
2023-03-05T00:27:16.429Z,22.47
2023-03-05T00:28:16.391Z,22.47
2023-03-05T00:29:16.415Z,22.47
2023-03-05T00:30:16.455Z,22.47
2023-03-05T00:31:16.377Z,22.47
2023-03-05T00:32:16.426Z,22.46
2023-03-05T00:33:16.281Z,22.46
2023-03-05T00:34:16.310Z,22.46
2023-03-05T00:35:17.347Z,22.46
2023-03-05T00:36:16.360Z,22.46
2023-03-05T00:37:16.376Z,22.47
2023-03-05T00:38:17.345Z,22.46
2023-03-05T00:39:16.428Z,22.48
2023-03-05T00:40:16.383Z,22.47
2023-03-05T00:41:16.311Z,22.47
2023-03-05T00:42:16.263Z,22.47
2023-03-05T00:43:16.374Z,22.46
2023-03-05T00:44:16.209Z,22.45
2023-03-05T00:45:16.323Z,22.46
2023-03-05T00:46:16.244Z,22.45
2023-03-05T00:47:16.258Z,22.46
2023-03-05T00:48:16.256Z,22.45
2023-03-05T00:49:16.263Z,22.45
2023-03-05T00:50:16.162Z,22.45
2023-03-05T00:51:16.201Z,22.45
2023-03-05T00:52:16.212Z,22.46
2023-03-05T00:53:16.138Z,22.46
2023-03-05T00:54:16.302Z,22.46
2023-03-05T00:55:16.196Z,22.46
2023-03-05T00:56:16.181Z,22.47
2023-03-05T00:57:16.223Z,22.46
2023-03-05T00:58:16.093Z,22.45
2023-03-05T00:59:16.217Z,22.44
2023-03-05T01:00:16.168Z,22.45
2023-03-05T01:01:16.214Z,22.45
2023-03-05T01:02:16.086Z,22.45
2023-03-05T01:03:17.110Z,22.44
2023-03-05T01:04:16.269Z,22.44
2023-03-05T01:05:16.208Z,22.45
2023-03-05T01:06:16.068Z,22.45
2023-03-05T01:07:16.113Z,22.45
2023-03-05T01:08:16.023Z,22.44
2023-03-05T01:09:16.092Z,22.44
2023-03-05T01:10:16.023Z,22.44
2023-03-05T01:11:17.059Z,22.44
2023-03-05T01:12:16.021Z,22.43
2023-03-05T01:13:16.001Z,22.44
2023-03-05T01:14:16.300Z,22.44
2023-03-05T01:15:15.988Z,22.44
2023-03-05T01:16:16.187Z,22.44
2023-03-05T01:17:15.960Z,22.43
2023-03-05T01:18:17.028Z,22.44
2023-03-05T01:19:16.015Z,22.44
2023-03-05T01:20:15.944Z,22.44
2023-03-05T01:22:15.905Z,22.43
2023-03-05T01:23:16.018Z,22.44
2023-03-05T01:24:15.946Z,22.44
2023-03-05T01:25:17.016Z,22.44
2023-03-05T01:26:17.074Z,22.45
2023-03-05T01:27:16.005Z,22.45
2023-03-05T01:28:15.921Z,22.45
2023-03-05T01:29:16.039Z,22.44
2023-03-05T01:30:15.949Z,22.45
2023-03-05T01:31:16.103Z,22.45
2023-03-05T01:32:15.987Z,22.44
2023-03-05T03:09:26.426Z,21.95
2023-03-05T03:10:26.662Z,22.17
2023-03-05T03:11:26.118Z,22.23
2023-03-05T03:13:26.264Z,22.29
2023-03-05T03:14:26.040Z,22.31
2023-03-05T03:15:26.115Z,22.33
2023-03-05T03:16:26.177Z,22.33
2023-03-05T03:17:26.193Z,22.34
2023-03-05T03:18:26.208Z,22.34
2023-03-05T03:19:26.113Z,22.36
2023-03-05T03:20:26.200Z,22.36
2023-03-05T03:21:33.923Z,22.36
2023-03-05T05:04:36.379Z,22.27
2023-03-05T05:05:36.003Z,22.33
2023-03-05T05:06:36.314Z,22.35
2023-03-05T05:07:36.358Z,22.36
2023-03-05T05:08:35.956Z,22.36
2023-03-05T05:09:35.909Z,22.36
2023-03-05T05:10:35.935Z,22.37
2023-03-05T05:11:36.051Z,22.37
2023-03-05T05:12:36.048Z,22.38
2023-03-05T05:13:36.095Z,22.38
2023-03-05T05:41:30.064Z,21.94
2023-03-05T05:42:30.265Z,22.15
2023-03-05T05:43:30.088Z,22.21
2023-03-05T05:44:30.037Z,22.24
2023-03-05T05:45:30.280Z,22.26
2023-03-05T05:46:30.116Z,22.29
2023-03-05T06:48:07.944Z,22.39
2023-03-05T06:49:07.852Z,22.42
2023-03-05T06:50:07.814Z,22.43
2023-03-05T06:51:07.835Z,22.43
2023-03-05T06:52:07.874Z,22.44
2023-03-05T06:53:07.945Z,22.43
2023-03-05T06:54:07.922Z,22.43
2023-03-05T06:55:07.997Z,22.44
2023-03-05T06:56:08.009Z,22.44
2023-03-05T06:57:08.121Z,22.44
2023-03-05T06:58:08.595Z,22.44
2023-03-05T06:59:08.016Z,22.44
2023-03-05T07:00:08.124Z,22.45
2023-03-05T07:01:08.129Z,22.45
2023-03-05T07:02:08.090Z,22.46
2023-03-05T07:03:08.119Z,22.46
2023-03-05T07:04:08.092Z,22.45
2023-03-05T07:05:08.163Z,22.45
2023-03-05T07:06:08.123Z,22.45
2023-03-05T07:07:08.160Z,22.45
2023-03-05T07:08:08.186Z,22.45
2023-03-05T07:09:08.210Z,22.45
2023-03-05T07:10:08.184Z,22.45
2023-03-05T07:11:08.262Z,22.45
2023-03-05T07:12:08.214Z,22.45
2023-03-05T07:13:08.222Z,22.45
2023-03-05T07:14:08.266Z,22.45
2023-03-05T07:15:08.273Z,22.45
2023-03-05T07:16:08.312Z,22.44
2023-03-05T07:20:34.160Z,22.11
2023-03-05T07:21:33.998Z,22.30
2023-03-05T07:22:34.134Z,22.35
2023-03-05T07:23:34.258Z,22.37
2023-03-05T07:24:34.055Z,22.39
2023-03-05T07:25:34.078Z,22.41
2023-03-05T07:26:34.115Z,22.43
2023-03-05T07:27:34.102Z,22.43
2023-03-05T07:55:12.722Z,22.21
2023-03-05T07:56:12.328Z,22.40
2023-03-05T07:57:12.307Z,22.45
2023-03-05T07:58:12.369Z,22.49
2023-03-05T07:59:12.347Z,22.51
2023-03-05T08:00:12.501Z,22.52
2023-03-05T08:01:13.429Z,22.54
2023-03-05T08:02:12.590Z,22.55
2023-03-05T08:07:29.717Z,22.24
2023-03-05T08:08:29.872Z,22.43
2023-03-05T08:09:29.639Z,22.49
2023-03-05T08:10:29.706Z,22.52
2023-03-05T08:11:29.950Z,22.54
2023-03-05T08:12:29.697Z,22.57
2023-03-05T08:13:29.765Z,22.59
2023-03-05T08:14:29.778Z,22.59
2023-03-05T08:15:29.892Z,22.61
2023-03-05T08:16:29.817Z,22.62
2023-03-05T08:17:29.831Z,22.63
2023-03-05T08:18:29.838Z,22.63
2023-03-05T08:19:29.841Z,22.64
2023-03-05T08:20:29.850Z,22.65
2023-03-05T08:21:29.923Z,22.65
2023-03-05T08:22:29.842Z,22.65
2023-03-05T08:23:29.864Z,22.67
2023-03-05T08:24:29.945Z,22.67
2023-03-05T08:26:49.015Z,22.62
2023-03-05T08:29:48.825Z,22.68
2023-03-05T08:31:48.782Z,22.69
2023-03-05T08:37:48.727Z,22.74
2023-03-05T08:38:48.756Z,22.73
2023-03-05T08:39:48.770Z,22.75
2023-03-05T08:41:48.710Z,22.75
2023-03-05T08:42:48.685Z,22.76
2023-03-05T08:43:48.681Z,22.76
2023-03-05T08:44:48.579Z,22.76
2023-03-05T08:45:48.664Z,22.77
2023-03-05T08:46:48.714Z,22.77
2023-03-05T08:47:48.590Z,22.77
2023-03-05T08:48:48.657Z,22.77
2023-03-05T08:49:48.591Z,22.78
2023-03-05T08:50:48.602Z,22.79
2023-03-05T08:51:48.783Z,22.78
2023-03-05T08:52:48.531Z,22.78
2023-03-05T08:53:48.557Z,22.79
2023-03-05T08:54:48.539Z,22.80
2023-03-05T08:55:48.545Z,22.80
2023-03-05T08:56:48.561Z,22.81
2023-03-05T08:57:48.582Z,22.81
2023-03-05T08:58:48.577Z,22.81
2023-03-05T08:59:48.657Z,22.82
2023-03-05T09:00:48.689Z,22.82
2023-03-05T09:01:48.740Z,22.83
2023-03-05T09:02:49.037Z,22.82
2023-03-05T09:03:48.875Z,22.83
2023-03-05T09:04:48.953Z,22.84
2023-03-05T09:05:48.939Z,22.83
2023-03-05T09:06:49.048Z,22.84
2023-03-05T09:07:49.122Z,22.84
2023-03-05T09:08:49.198Z,22.85
2023-03-05T09:09:49.270Z,22.84
2023-03-05T09:10:49.280Z,22.85
2023-03-05T09:11:49.336Z,22.85
2023-03-05T09:12:49.362Z,22.86
2023-03-05T09:13:49.439Z,22.86
2023-03-05T09:14:49.520Z,22.86
2023-03-05T09:15:49.638Z,22.86
2023-03-05T09:16:49.929Z,22.86
2023-03-05T09:17:49.764Z,22.87
2023-03-05T09:18:49.754Z,22.87
2023-03-05T09:19:49.882Z,22.87
2023-03-05T09:20:49.913Z,22.87
2023-03-05T09:21:49.899Z,22.87
2023-03-05T09:23:50.033Z,22.88
2023-03-05T09:35:09.530Z,22.86
2023-03-05T09:36:10.006Z,22.89
2023-03-05T09:37:09.413Z,22.89
2023-03-05T09:38:09.424Z,22.86
2023-03-05T09:39:09.536Z,22.86
2023-03-05T09:40:09.544Z,22.86
2023-03-05T09:41:09.746Z,22.88
2023-03-05T09:42:10.263Z,22.88
2023-03-05T09:43:09.777Z,22.88
2023-03-05T09:44:09.790Z,22.89
2023-03-05T09:45:09.925Z,22.89
2023-03-05T09:46:09.989Z,22.90
2023-03-05T09:47:09.946Z,22.90
2023-03-05T09:48:10.066Z,22.91
2023-03-05T09:49:10.118Z,22.91
2023-03-05T09:50:10.175Z,22.92
2023-03-05T09:51:10.254Z,22.92
2023-03-05T09:52:10.267Z,22.94
2023-03-05T09:53:10.345Z,22.94
2023-03-05T09:54:10.382Z,22.94
2023-03-05T09:55:10.429Z,22.94
2023-03-05T09:56:10.569Z,22.95
2023-03-05T09:57:10.583Z,22.95
2023-03-05T09:58:10.617Z,22.95
2023-03-05T09:59:10.755Z,22.95
2023-03-05T10:00:10.793Z,22.95
2023-03-05T10:01:10.843Z,22.96
2023-03-05T10:02:10.880Z,22.97
2023-03-05T10:47:47.410Z,22.64
2023-03-05T10:48:46.840Z,22.85
2023-03-05T10:49:46.851Z,22.90
2023-03-05T10:50:46.621Z,22.93
2023-03-05T10:51:46.558Z,22.95
2023-03-05T10:52:46.743Z,22.97
2023-03-05T10:53:46.694Z,22.97
2023-03-05T10:54:46.649Z,22.98
2023-03-05T10:55:46.722Z,23.00
2023-03-05T10:56:46.711Z,23.00
2023-03-05T10:57:46.788Z,23.00
2023-03-05T10:58:46.905Z,23.01
2023-03-05T10:59:46.944Z,23.01
2023-03-05T11:00:46.974Z,23.01
2023-03-05T11:01:47.055Z,23.01
2023-03-05T11:02:47.139Z,23.01
2023-03-05T11:03:47.151Z,23.01
2023-03-05T11:04:47.141Z,23.02
2023-03-05T11:05:47.221Z,23.01
2023-03-05T11:06:47.232Z,23.01
2023-03-05T11:07:47.341Z,23.01
2023-03-05T11:08:47.370Z,23.01
2023-03-05T11:09:47.421Z,23.02
2023-03-05T11:10:47.484Z,23.02
2023-03-05T11:11:47.641Z,23.02
2023-03-05T11:12:47.605Z,23.02
2023-03-05T11:13:47.687Z,23.04
2023-03-05T11:14:47.747Z,23.03
2023-03-05T11:15:47.783Z,23.03
2023-03-05T11:16:47.773Z,23.04
2023-03-05T11:17:48.004Z,23.04
2023-03-05T11:18:47.989Z,23.04
2023-03-05T11:19:47.938Z,23.04
2023-03-05T11:20:47.999Z,23.04
2023-03-05T11:21:48.107Z,23.04
2023-03-05T11:22:48.095Z,23.04
2023-03-05T11:23:49.201Z,23.04
2023-03-05T11:24:48.240Z,23.03
2023-03-05T11:25:48.211Z,23.04
2023-03-05T11:26:48.329Z,23.03
2023-03-05T11:27:50.221Z,23.03
2023-03-05T11:28:48.359Z,23.03
2023-03-05T11:29:48.368Z,23.03
2023-03-05T11:30:48.439Z,23.03
2023-03-05T11:31:48.362Z,23.03
2023-03-05T11:36:00.919Z,22.70
2023-03-05T11:37:01.799Z,22.89
2023-03-05T11:38:01.482Z,22.93
2023-03-05T11:39:01.724Z,22.96
2023-03-05T11:40:00.812Z,22.97
2023-03-05T11:41:00.625Z,22.98
2023-03-05T11:42:00.744Z,22.98
2023-03-05T11:43:00.815Z,23.00
2023-03-05T11:44:00.900Z,23.00
2023-03-05T11:45:00.935Z,23.00
2023-03-05T11:47:19.805Z,22.93
2023-03-05T11:48:19.842Z,22.97
2023-03-05T11:49:19.754Z,22.98
2023-03-05T11:50:19.662Z,22.99
2023-03-05T11:51:19.706Z,23.00
2023-03-05T11:52:19.772Z,23.01
2023-03-05T11:53:19.643Z,23.01
2023-03-05T11:54:19.668Z,23.01
2023-03-05T11:55:19.620Z,23.02
2023-03-05T11:56:19.669Z,23.02
2023-03-05T11:57:19.626Z,23.02
2023-03-05T11:58:19.711Z,23.03
2023-03-05T11:59:19.740Z,23.03
2023-03-05T12:00:19.759Z,23.03
2023-03-05T12:01:19.839Z,23.03
2023-03-05T12:02:19.938Z,23.03
2023-03-05T12:03:20.078Z,23.03
2023-03-05T12:04:20.039Z,23.02
2023-03-05T12:05:20.054Z,23.02
2023-03-05T12:06:20.094Z,23.03
2023-03-05T12:07:20.162Z,23.02
2023-03-05T12:08:20.266Z,23.02
2023-03-05T12:09:20.285Z,23.02
2023-03-05T12:10:20.357Z,23.01
2023-03-05T12:11:20.493Z,23.01
2023-03-05T12:12:20.474Z,23.02
2023-03-05T12:13:20.489Z,23.02
2023-03-05T12:14:20.616Z,23.02
2023-03-05T12:15:20.637Z,23.02
2023-03-05T13:08:24.466Z,22.72
2023-03-05T13:09:24.368Z,22.80
2023-03-05T13:10:24.285Z,22.84
2023-03-05T13:11:24.356Z,22.86
2023-03-05T13:12:24.092Z,22.88
2023-03-05T13:13:24.098Z,22.89
2023-03-05T13:14:24.258Z,22.91
2023-03-05T13:15:24.145Z,22.91
2023-03-05T13:16:24.502Z,22.92
2023-03-05T13:17:24.166Z,22.92
2023-03-05T13:18:24.313Z,22.92
2023-03-05T13:19:24.390Z,22.92
2023-03-05T13:20:24.511Z,22.93
2023-03-05T13:21:25.550Z,22.93
2023-03-05T13:22:24.554Z,22.93
2023-03-05T13:23:24.534Z,22.92
2023-03-05T13:24:24.650Z,22.92
2023-03-05T13:25:24.729Z,22.93
2023-03-05T13:26:24.837Z,22.93
2023-03-05T13:27:24.752Z,22.93
2023-03-05T13:28:25.079Z,22.93
2023-03-05T13:29:24.883Z,22.92
2023-03-05T13:30:25.094Z,22.92
2023-03-05T13:31:26.146Z,22.92
2023-03-05T13:32:25.117Z,22.92
2023-03-05T13:33:25.154Z,22.91
2023-03-05T13:34:26.517Z,22.92
2023-03-05T13:35:25.183Z,22.92
2023-03-05T13:37:25.203Z,22.92
2023-03-05T13:39:25.312Z,22.92
2023-03-05T20:40:29.533Z,22.25
2023-03-05T20:41:29.213Z,22.32
2023-03-05T20:42:29.289Z,22.36
2023-03-05T20:43:29.200Z,22.41
2023-03-05T20:44:29.198Z,22.42
2023-03-05T20:45:29.175Z,22.44
2023-03-05T20:47:48.536Z,22.41
2023-03-05T20:48:48.563Z,22.44
2023-03-05T20:49:48.373Z,22.45
2023-03-05T20:50:49.203Z,22.48
2023-03-05T20:51:49.130Z,22.48
2023-03-05T20:52:48.085Z,22.48
2023-03-05T20:53:48.049Z,22.49
2023-03-05T20:54:48.124Z,22.49
2023-03-05T20:55:48.148Z,22.50
2023-03-05T20:56:48.118Z,22.49
2023-03-05T20:57:48.062Z,22.49
2023-03-05T20:58:48.255Z,22.49
2023-03-05T20:59:48.092Z,22.50
2023-03-05T21:00:48.098Z,22.50
2023-03-05T21:01:48.070Z,22.50
2023-03-05T21:02:47.996Z,22.50
2023-03-05T21:03:48.031Z,22.51
2023-03-05T21:04:48.041Z,22.51
2023-03-05T21:05:47.995Z,22.52
2023-03-05T21:06:48.017Z,22.52
2023-03-05T21:07:48.035Z,22.52
2023-03-05T21:08:47.896Z,22.52
2023-03-05T21:09:48.007Z,22.52
2023-03-05T21:10:47.874Z,22.53
2023-03-05T21:11:48.016Z,22.53
2023-03-05T21:12:49.093Z,22.53
2023-03-05T21:14:47.910Z,22.52
2023-03-05T21:15:47.902Z,22.52
2023-03-05T21:28:48.864Z,22.53
2023-03-05T22:12:44.446Z,22.49
2023-03-05T22:13:44.626Z,22.50
2023-03-05T22:21:44.347Z,22.51
2023-03-05T22:22:44.265Z,22.51
2023-03-05T22:23:44.376Z,22.52
2023-03-05T22:24:44.230Z,22.52
2023-03-05T22:25:44.325Z,22.52
2023-03-05T22:26:44.196Z,22.52
2023-03-05T22:27:44.233Z,22.51
2023-03-05T22:28:44.127Z,22.52
2023-03-05T22:29:44.282Z,22.52
2023-03-05T22:32:03.105Z,22.45
2023-03-05T22:38:08.756Z,22.14
2023-03-05T22:39:08.583Z,22.34
2023-03-05T22:40:09.606Z,22.39
2023-03-05T22:41:08.425Z,22.42
2023-03-05T22:42:09.537Z,22.44
2023-03-05T22:43:08.459Z,22.46
2023-03-05T22:44:08.451Z,22.47
2023-03-05T22:45:08.470Z,22.47
2023-03-05T22:46:08.563Z,22.48
2023-03-05T22:47:08.563Z,22.49
2023-03-05T22:48:08.661Z,22.49
2023-03-05T22:49:08.493Z,22.49
2023-03-05T22:50:08.544Z,22.49
2023-03-05T22:51:08.548Z,22.49
2023-03-05T22:52:08.455Z,22.50
2023-03-05T22:53:08.539Z,22.50
2023-03-05T22:54:08.498Z,22.49
2023-03-05T22:55:09.499Z,22.50
2023-03-05T22:56:08.555Z,22.51
2023-03-05T22:57:09.537Z,22.51
2023-03-05T22:58:09.509Z,22.51
2023-03-05T22:59:08.527Z,22.51
2023-03-05T23:00:08.575Z,22.52
2023-03-05T23:01:08.547Z,22.51
2023-03-05T23:02:08.575Z,22.51
2023-03-05T23:13:08.405Z,22.51
2023-03-05T23:14:08.488Z,22.51
2023-03-05T23:15:08.550Z,22.51
2023-03-05T23:16:08.520Z,22.51
2023-03-05T23:17:08.487Z,22.50
2023-03-05T23:18:08.476Z,22.50
